Time;durP1;ratioP1;P1;durP2;ratioP2;P2;SDS_P1;SDS_P2;PMS_P1;PMS_P2;Temp;Humidity;BMP_temperature;BMP_pressure;BME280_temperature;BME280_humidity;BME280_pressure;Samples;Min_cycle;Max_cycle;Signal;HPM_P1;HPM_P2
2022/05/05 00:00:12;;;;;;;3.33;1.80;;;6.00;99.90;;;;;;5054521;28;20171;-79
2022/05/05 00:02:38;;;;;;;4.00;3.00;;;5.90;99.90;;;;;;5055007;28;20218;-79
2022/05/05 00:05:05;;;;;;;5.33;3.60;;;5.90;99.90;;;;;;5055161;28;20407;-80
2022/05/05 00:07:31;;;;;;;5.10;3.07;;;5.90;99.90;;;;;;5054811;28;20191;-80
2022/05/05 00:09:56;;;;;;;4.43;2.67;;;5.90;99.90;;;;;;5054567;28;20409;-80
2022/05/05 00:15:07;;;;;;;7.03;2.40;;;5.70;99.90;;;;;;5055207;28;20660;-80
2022/05/05 00:17:34;;;;;;;7.50;2.83;;;5.70;99.90;;;;;;5054852;28;20523;-80
2022/05/05 00:20:00;;;;;;;4.30;3.40;;;5.70;99.90;;;;;;5054839;28;20779;-80
2022/05/05 00:22:26;;;;;;;5.43;4.03;;;5.60;99.90;;;;;;5054594;28;21069;-80
2022/05/05 00:24:52;;;;;;;3.90;2.83;;;5.50;99.90;;;;;;5054327;28;20408;-80
2022/05/05 00:27:17;;;;;;;7.03;2.83;;;5.50;99.90;;;;;;5054712;28;20482;-80
2022/05/05 00:29:43;;;;;;;6.70;4.13;;;5.50;99.90;;;;;;5054508;28;20174;-80
2022/05/05 00:32:08;;;;;;;6.97;2.57;;;5.50;99.90;;;;;;5054585;28;20265;-80
2022/05/05 00:34:34;;;;;;;5.00;2.20;;;5.40;99.90;;;;;;5054521;28;20198;-80
2022/05/05 00:36:59;;;;;;;7.03;4.47;;;5.40;99.90;;;;;;5036440;28;20301;-80
2022/05/05 00:39:25;;;;;;;6.40;4.10;;;5.30;99.90;;;;;;5054123;28;20174;-80
2022/05/05 00:41:51;;;;;;;4.83;3.60;;;5.30;99.90;;;;;;5054215;28;20178;-80
2022/05/05 00:44:16;;;;;;;5.70;3.60;;;5.30;99.90;;;;;;5054138;28;20274;-80
2022/05/05 00:46:49;;;;;;;4.90;3.40;;;5.20;99.90;;;;;;5054234;28;20412;-80
2022/05/05 00:49:15;;;;;;;6.70;3.17;;;5.30;99.90;;;;;;5053948;28;20217;-80
2022/05/05 00:51:41;;;;;;;3.63;2.70;;;5.20;99.90;;;;;;5054107;28;20448;-80
2022/05/05 00:54:07;;;;;;;5.33;3.50;;;5.20;99.90;;;;;;5053640;28;20420;-80
2022/05/05 00:56:33;;;;;;;5.83;2.83;;;5.30;99.90;;;;;;5054071;28;20408;-79
2022/05/05 00:59:00;;;;;;;4.63;3.00;;;5.20;99.90;;;;;;5054034;28;20607;-80
2022/05/05 01:01:26;;;;;;;8.87;2.93;;;5.20;99.90;;;;;;5053946;28;20412;-79
2022/05/05 01:03:51;;;;;;;8.80;3.10;;;5.10;99.90;;;;;;5053965;28;20431;-80
2022/05/05 01:06:17;;;;;;;7.37;4.10;;;5.10;99.90;;;;;;5053852;28;20719;-79
2022/05/05 01:08:44;;;;;;;6.03;3.90;;;5.10;99.90;;;;;;5053491;28;20223;-80
2022/05/05 01:11:09;;;;;;;4.47;4.07;;;5.00;99.90;;;;;;5053886;28;20530;-80
2022/05/05 01:13:42;;;;;;;3.90;3.07;;;5.00;99.90;;;;;;5053597;28;20467;-79
2022/05/05 01:16:09;;;;;;;5.70;3.80;;;5.00;99.90;;;;;;5053847;28;20182;-79
2022/05/05 01:18:35;;;;;;;4.60;3.80;;;5.00;99.90;;;;;;5053625;28;20451;-79
2022/05/05 01:21:00;;;;;;;6.07;3.33;;;4.90;99.90;;;;;;5053644;28;20407;-79
2022/05/05 01:23:26;;;;;;;5.00;4.00;;;4.90;99.90;;;;;;5053554;28;20169;-79
2022/05/05 01:28:45;;;;;;;4.40;3.37;;;4.80;99.90;;;;;;5053552;28;20593;-79
2022/05/05 01:31:11;;;;;;;5.80;3.60;;;4.70;99.90;;;;;;5053431;28;20413;-79
2022/05/05 01:33:37;;;;;;;5.20;4.60;;;4.70;99.90;;;;;;5053333;28;20491;-79
2022/05/05 01:39:25;;;;;;;6.30;3.83;;;4.60;99.90;;;;;;5052926;28;20918;-78
2022/05/05 01:41:50;;;;;;;4.97;4.47;;;4.60;99.90;;;;;;5035311;28;20417;-79
2022/05/05 01:44:16;;;;;;;6.50;4.10;;;4.60;99.90;;;;;;5052984;28;20286;-80
2022/05/05 01:46:41;;;;;;;7.17;5.33;;;4.60;99.90;;;;;;5053211;28;20162;-80
2022/05/05 01:49:07;;;;;;;7.57;4.17;;;4.60;99.90;;;;;;5053208;28;20166;-80
2022/05/05 01:51:32;;;;;;;5.27;3.37;;;4.60;99.90;;;;;;5053080;28;20170;-80
2022/05/05 01:53:58;;;;;;;7.80;4.40;;;4.60;99.90;;;;;;5052912;28;20256;-80
2022/05/05 01:56:23;;;;;;;6.43;3.73;;;4.60;99.90;;;;;;5053088;28;20619;-80
2022/05/05 01:58:49;;;;;;;6.17;4.20;;;4.50;99.90;;;;;;5053107;28;20228;-80
2022/05/05 02:01:14;;;;;;;5.13;3.57;;;4.50;99.90;;;;;;5052395;28;20605;-80
2022/05/05 02:03:40;;;;;;;7.63;4.10;;;4.50;99.90;;;;;;5053027;28;20170;-80
2022/05/05 02:06:07;;;;;;;4.03;3.30;;;4.40;99.90;;;;;;5053051;28;20219;-80
2022/05/05 02:08:32;;;;;;;5.23;3.30;;;4.40;99.90;;;;;;5052602;28;20891;-80
2022/05/05 02:10:58;;;;;;;8.00;3.70;;;4.30;99.90;;;;;;5052910;28;20440;-80
2022/05/05 02:13:24;;;;;;;7.17;4.53;;;4.30;99.90;;;;;;5034937;28;20472;-80
2022/05/05 02:15:49;;;;;;;4.83;4.33;;;4.20;99.90;;;;;;5052926;28;20177;-80
2022/05/05 02:18:15;;;;;;;6.53;3.97;;;4.30;99.90;;;;;;5052917;28;20707;-80
2022/05/05 02:20:41;;;;;;;5.47;4.03;;;4.20;99.90;;;;;;5052860;28;20249;-80
2022/05/05 02:23:07;;;;;;;4.87;4.43;;;4.20;99.90;;;;;;5052877;28;20439;-80
2022/05/05 02:25:33;;;;;;;6.47;3.70;;;4.20;99.90;;;;;;5052352;28;20270;-80
2022/05/05 02:28:00;;;;;;;6.27;3.87;;;4.20;99.90;;;;;;5052765;28;20443;-80
2022/05/05 02:30:27;;;;;;;5.10;4.13;;;4.10;99.90;;;;;;5052794;28;20498;-79
2022/05/05 02:32:52;;;;;;;8.20;4.90;;;4.10;99.90;;;;;;5052587;28;20467;-79
2022/05/05 02:35:19;;;;;;;6.17;3.93;;;4.00;99.90;;;;;;5052695;28;20518;-80
2022/05/05 02:40:29;;;;;;;7.47;3.97;;;4.10;99.90;;;;;;5052640;28;20550;-79
2022/05/05 02:42:56;;;;;;;4.03;3.40;;;4.00;99.90;;;;;;5052639;28;20420;-80
2022/05/05 02:45:21;;;;;;;4.83;4.30;;;4.00;99.90;;;;;;5052408;28;20283;-80
2022/05/05 02:47:49;;;;;;;4.73;3.77;;;3.90;99.90;;;;;;5052554;28;20412;-80
2022/05/05 02:50:15;;;;;;;8.23;5.40;;;3.90;99.90;;;;;;5052528;28;20217;-80
2022/05/05 02:52:41;;;;;;;5.00;3.77;;;3.90;99.90;;;;;;5052510;28;20833;-80
2022/05/05 02:55:07;;;;;;;8.83;5.83;;;3.90;99.90;;;;;;5052212;28;20416;-80
2022/05/05 02:57:33;;;;;;;6.30;4.63;;;3.90;99.90;;;;;;5052533;28;20170;-80
2022/05/05 02:59:58;;;;;;;4.40;3.87;;;3.80;99.90;;;;;;5052455;28;20981;-80
2022/05/05 03:02:24;;;;;;;6.47;4.13;;;3.80;99.90;;;;;;5052465;28;20173;-80
2022/05/05 03:04:50;;;;;;;6.90;4.63;;;3.80;99.90;;;;;;5052374;28;20225;-80
2022/05/05 03:07:15;;;;;;;4.03;3.63;;;3.80;99.90;;;;;;5052436;28;20177;-80
2022/05/05 03:09:41;;;;;;;6.00;4.17;;;3.70;99.90;;;;;;5052030;28;20784;-79
2022/05/05 03:12:08;;;;;;;6.50;4.77;;;3.70;99.90;;;;;;5054904;28;20204;-79
2022/05/05 03:14:34;;;;;;;8.13;4.43;;;3.70;99.90;;;;;;5056040;28;20767;-79
2022/05/05 03:16:59;;;;;;;4.67;4.00;;;3.70;99.90;;;;;;5055961;28;20418;-79
2022/05/05 03:19:26;;;;;;;9.13;4.80;;;3.70;99.90;;;;;;5038111;28;20174;-79
2022/05/05 03:21:52;;;;;;;5.60;4.30;;;3.70;99.90;;;;;;5055949;28;20170;-79
2022/05/05 03:24:17;;;;;;;6.03;4.13;;;3.60;99.90;;;;;;5055558;28;20428;-79
2022/05/05 03:26:43;;;;;;;5.40;4.00;;;3.60;99.90;;;;;;5055816;28;20436;-79
2022/05/05 03:29:09;;;;;;;8.47;3.90;;;3.60;99.90;;;;;;5055740;28;20193;-79
2022/05/05 03:31:34;;;;;;;7.60;4.77;;;3.60;99.90;;;;;;5037735;28;20173;-79
2022/05/05 03:33:59;;;;;;;6.73;4.47;;;3.50;99.90;;;;;;5055661;28;20181;-80
2022/05/05 03:36:25;;;;;;;5.07;3.80;;;3.50;99.90;;;;;;5055651;28;20177;-80
2022/05/05 03:38:51;;;;;;;5.53;4.90;;;3.50;99.90;;;;;;5037410;28;20182;-80
2022/05/05 03:41:17;;;;;;;4.97;4.33;;;3.40;99.90;;;;;;5055617;28;20177;-79
2022/05/05 03:43:42;;;;;;;8.77;4.33;;;3.40;99.90;;;;;;5055345;28;20444;-79
2022/05/05 03:46:08;;;;;;;5.23;4.10;;;3.40;99.90;;;;;;5055421;28;20268;-79
2022/05/05 03:48:34;;;;;;;5.23;4.50;;;3.30;99.90;;;;;;5037488;28;20174;-80
2022/05/05 03:50:59;;;;;;;4.67;4.27;;;3.20;99.90;;;;;;5055386;28;20173;-79
2022/05/05 03:53:25;;;;;;;4.53;4.03;;;3.20;99.90;;;;;;5054877;28;20210;-80
2022/05/05 03:55:50;;;;;;;7.37;4.27;;;3.20;99.90;;;;;;5055228;28;20549;-79
2022/05/05 03:58:16;;;;;;;4.80;4.30;;;3.20;99.90;;;;;;5055214;28;20205;-80
2022/05/05 04:00:42;;;;;;;4.63;4.23;;;3.30;99.90;;;;;;5055222;28;20189;-79
2022/05/05 04:05:52;;;;;;;9.53;5.40;;;3.30;99.90;;;;;;5055366;28;20450;-79
2022/05/05 04:08:17;;;;;;;7.03;4.53;;;3.30;99.90;;;;;;5054746;28;20412;-79
2022/05/05 04:10:42;;;;;;;6.90;5.20;;;3.30;99.90;;;;;;5054996;28;20205;-79
2022/05/05 04:13:08;;;;;;;4.70;4.23;;;3.30;99.90;;;;;;5054871;28;20224;-79
2022/05/05 04:15:33;;;;;;;4.97;4.40;;;3.30;99.90;;;;;;5054896;28;20249;-79
2022/05/05 04:18:00;;;;;;;5.90;5.30;;;3.40;99.90;;;;;;5054919;28;20204;-80
2022/05/05 04:20:25;;;;;;;7.87;5.17;;;3.40;99.90;;;;;;5054896;28;20158;-80
2022/05/05 04:22:51;;;;;;;10.90;5.47;;;3.50;99.90;;;;;;5036343;28;20769;-80
2022/05/05 04:25:17;;;;;;;7.70;5.67;;;3.60;99.90;;;;;;5036557;28;20294;-80
2022/05/05 04:27:47;;;;;;;9.90;6.13;;;3.60;99.90;;;;;;5054808;28;20412;-80
2022/05/05 04:30:16;;;;;;;7.47;5.60;;;3.80;99.90;;;;;;5054715;28;20225;-80
2022/05/05 04:32:41;;;;;;;5.40;4.90;;;3.80;99.90;;;;;;5054580;28;20817;-80
2022/05/05 04:35:07;;;;;;;8.90;5.83;;;3.90;99.90;;;;;;5054510;28;20413;-79
2022/05/05 04:37:33;;;;;;;8.03;6.50;;;4.00;99.90;;;;;;5054551;28;20176;-80
2022/05/05 04:39:58;;;;;;;5.80;5.20;;;4.10;99.90;;;;;;5054056;28;20408;-80
2022/05/05 04:42:25;;;;;;;9.27;5.90;;;4.20;99.90;;;;;;5054372;28;20244;-80
2022/05/05 04:44:51;;;;;;;5.87;4.80;;;4.30;99.90;;;;;;5054113;28;20213;-80
2022/05/05 04:47:17;;;;;;;6.47;5.63;;;4.40;99.90;;;;;;5054332;28;20423;-80
2022/05/05 04:49:42;;;;;;;7.27;6.10;;;4.40;99.90;;;;;;5054293;28;20904;-80
2022/05/05 04:52:08;;;;;;;5.70;4.50;;;4.50;99.90;;;;;;5054168;28;20202;-79
2022/05/05 04:54:33;;;;;;;11.20;6.53;;;4.60;99.90;;;;;;5053748;28;20273;-79
2022/05/05 04:57:00;;;;;;;10.97;5.90;;;4.70;99.90;;;;;;5054106;28;20239;-80
2022/05/05 04:59:26;;;;;;;10.80;6.50;;;4.80;99.90;;;;;;5054125;28;20634;-80
2022/05/05 05:01:51;;;;;;;10.73;5.97;;;4.90;99.90;;;;;;5053987;28;20470;-80
2022/05/05 05:04:17;;;;;;;12.33;6.63;;;5.00;99.90;;;;;;5036110;28;20688;-80
2022/05/05 05:06:42;;;;;;;9.10;7.43;;;5.10;99.90;;;;;;5053895;28;20515;-80
2022/05/05 05:09:08;;;;;;;8.73;6.70;;;5.30;99.90;;;;;;5053543;28;20180;-80
2022/05/05 05:11:33;;;;;;;8.67;5.90;;;5.40;99.90;;;;;;5053718;28;20231;-80
2022/05/05 05:13:59;;;;;;;5.90;5.40;;;5.60;99.90;;;;;;5053793;28;20174;-80
2022/05/05 05:16:25;;;;;;;11.33;5.80;;;5.70;99.90;;;;;;5053738;28;20260;-80
2022/05/05 05:18:53;;;;;;;6.80;6.13;;;6.00;99.90;;;;;;5053693;28;20500;-80
2022/05/05 05:21:22;;;;;;;8.30;5.10;;;6.10;99.90;;;;;;5035693;28;20165;-80
2022/05/05 05:23:47;;;;;;;9.93;5.17;;;6.40;99.90;;;;;;5053071;28;20408;-80
2022/05/05 05:26:16;;;;;;;8.73;6.20;;;6.70;99.90;;;;;;5053388;28;20929;-80
2022/05/05 05:28:42;;;;;;;6.50;5.17;;;6.90;99.90;;;;;;5052704;28;20175;-81
2022/05/05 05:31:07;;;;;;;5.93;5.23;;;7.30;99.90;;;;;;5052985;28;20854;-80
2022/05/05 05:33:33;;;;;;;7.03;4.17;;;7.70;51.30;;;;;;5052064;28;20542;-81
2022/05/05 05:35:59;;;;;;;8.60;6.10;;;8.10;1.00;;;;;;5052148;28;20265;-80
2022/05/05 05:38:25;;;;;;;5.63;4.30;;;8.30;1.00;;;;;;5052994;28;20177;-81
2022/05/05 05:40:50;;;;;;;7.30;3.30;;;8.60;1.00;;;;;;5053276;28;20174;-81
2022/05/05 05:43:17;;;;;;;3.87;2.80;;;8.90;99.90;;;;;;5053054;28;20413;-80
2022/05/05 05:45:42;;;;;;;6.47;3.40;;;9.10;1.00;;;;;;5053259;28;20196;-81
2022/05/05 05:48:14;;;;;;;4.63;3.07;;;9.30;99.90;;;;;;5053239;28;20823;-81
2022/05/05 05:50:39;;;;;;;5.67;3.13;;;9.50;1.00;;;;;;5057350;28;20572;-80
2022/05/05 05:53:05;;;;;;;4.13;3.40;;;9.70;99.90;;;;;;5018416;28;20480;-80
2022/05/05 05:55:31;;;;;;;3.83;2.30;;;9.80;1.00;;;;;;5053099;28;20172;-81
2022/05/05 05:58:03;;;;;;;3.77;3.00;;;10.20;21.70;;;;;;5053120;28;20558;-81
2022/05/05 06:00:30;;;;;;;6.53;2.83;;;10.50;99.90;;;;;;5053107;28;20672;-81
2022/05/05 06:05:39;;;;;;;4.57;1.83;;;11.40;99.90;;;;;;5053116;28;20450;-79
2022/05/05 06:08:05;;;;;;;3.40;2.00;;;12.00;99.90;;;;;;5034748;28;20942;-79
2022/05/05 06:10:34;;;;;;;4.87;2.00;;;12.50;99.90;;;;;;5052830;28;20165;-79
2022/05/05 06:13:05;;;;;;;3.73;1.23;;;13.50;99.90;;;;;;5052643;28;20243;-80
2022/05/05 06:15:31;;;;;;;4.10;2.10;;;13.90;99.90;;;;;;5052921;28;20420;-83
2022/05/05 06:17:56;;;;;;;6.50;1.63;;;14.70;74.10;;;;;;5034965;28;20425;-80
2022/05/05 06:20:22;;;;;;;4.20;1.90;;;15.40;23.10;;;;;;5052437;28;20244;-81
2022/05/05 06:22:50;;;;;;;6.37;2.27;;;15.80;16.60;;;;;;5049364;28;20187;-81
2022/05/05 06:25:16;;;;;;;10.00;3.80;;;16.20;1.00;;;;;;5071694;28;20261;-81
2022/05/05 06:27:42;;;;;;;4.20;2.17;;;16.40;1.00;;;;;;5071668;28;20425;-84
2022/05/05 06:30:13;;;;;;;3.40;2.13;;;16.20;1.00;;;;;;5053754;28;20403;-83
2022/05/05 06:32:39;;;;;;;2.83;1.27;;;17.00;1.00;;;;;;5071659;28;20259;-82
2022/05/05 06:35:06;;;;;;;4.80;1.60;;;17.40;1.00;;;;;;5071650;28;20890;-82
2022/05/05 06:37:31;;;;;;;2.20;1.57;;;18.20;1.00;;;;;;5071547;28;20847;-82
2022/05/05 06:39:57;;;;;;;5.60;1.60;;;17.90;1.00;;;;;;5071252;28;20414;-82
2022/05/05 06:42:22;;;;;;;2.10;1.33;;;17.70;1.00;;;;;;5053587;28;20181;-82
2022/05/05 06:44:48;;;;;;;2.70;0.73;;;18.00;1.00;;;;;;5071388;28;20220;-81
2022/05/05 06:47:14;;;;;;;2.50;0.67;;;18.30;1.00;;;;;;5052583;28;20192;-82
2022/05/05 06:49:39;;;;;;;22.93;4.50;;;18.50;1.00;;;;;;5036037;28;20182;-81
2022/05/05 06:52:05;;;;;;;45.43;10.43;;;18.40;1.00;;;;;;5045503;28;20197;-81
2022/05/05 06:54:31;;;;;;;3.50;0.60;;;18.80;1.00;;;;;;5055521;28;20236;-82
2022/05/05 06:56:56;;;;;;;5.33;0.90;;;18.80;1.00;;;;;;5055125;28;20264;-81
2022/05/05 06:59:22;;;;;;;4.47;0.60;;;19.00;1.00;;;;;;5037958;28;20163;-82
2022/05/05 07:02:01;;;;;;;2.37;0.40;;;19.20;1.00;;;;;;5055735;28;20646;-81
2022/05/05 07:07:13;;;;;;;1.37;0.50;;;18.50;1.00;;;;;;5055860;28;20801;-81
2022/05/05 07:12:24;;;;;;;2.00;0.30;;;18.90;1.00;;;;;;5055614;28;20495;-82
2022/05/05 07:14:50;;;;;;;1.70;0.70;;;18.60;1.00;;;;;;5055163;28;20418;-82
2022/05/05 07:17:15;;;;;;;4.30;1.00;;;19.10;1.00;;;;;;5055280;28;20566;-82
2022/05/05 07:19:41;;;;;;;3.40;0.60;;;19.30;1.00;;;;;;5054516;28;20206;-82
2022/05/05 07:22:07;;;;;;;3.73;0.80;;;19.40;1.00;;;;;;5054598;28;20168;-82
2022/05/05 07:24:33;;;;;;;3.10;0.77;;;19.70;1.00;;;;;;5036732;28;20174;-82
2022/05/05 07:26:59;;;;;;;4.00;1.00;;;19.70;1.00;;;;;;5055007;28;20771;-80
2022/05/05 07:29:25;;;;;;;3.00;0.70;;;20.20;1.00;;;;;;5055414;28;20174;-80
2022/05/05 07:31:50;;;;;;;9.83;1.43;;;20.10;1.00;;;;;;5055559;28;20412;-81
2022/05/05 07:34:18;;;;;;;3.37;1.00;;;19.70;1.00;;;;;;5055874;28;20194;-80
2022/05/05 07:36:44;;;;;;;4.97;0.90;;;18.70;1.00;;;;;;5055479;28;20247;-80
2022/05/05 07:39:09;;;;;;;4.70;0.93;;;18.60;1.00;;;;;;5037355;28;20529;-80
2022/05/05 07:41:35;;;;;;;2.93;0.90;;;18.70;1.00;;;;;;5055531;28;20164;-81
2022/05/05 07:44:01;;;;;;;2.10;0.90;;;19.10;1.00;;;;;;5055331;28;20224;-80
2022/05/05 07:46:30;;;;;;;2.20;0.60;;;19.30;1.00;;;;;;5055417;28;20239;-80
2022/05/05 07:48:56;;;;;;;4.43;1.40;;;19.30;1.00;;;;;;5055455;28;20427;-80
2022/05/05 07:51:21;;;;;;;2.13;0.67;;;19.90;1.00;;;;;;5055409;28;20774;-80
2022/05/05 07:54:34;;;;;;;4.30;1.07;;;20.20;1.00;;;;;;5037022;28;20310;-80
2022/05/05 07:56:32;;;;;;;2.53;0.57;;;19.50;1.00;;;;;;5055181;28;20169;-80
2022/05/05 07:58:58;;;;;;;5.37;0.70;;;20.00;1.00;;;;;;5054166;28;20419;-81
2022/05/05 08:01:26;;;;;;;4.97;0.90;;;20.30;1.00;;;;;;5055267;28;20230;-78
2022/05/05 08:03:52;;;;;;;3.53;1.10;;;21.10;1.00;;;;;;5055061;28;20201;-80
2022/05/05 08:06:18;;;;;;;2.30;0.60;;;20.50;1.00;;;;;;5055158;28;20453;-80
2022/05/05 08:08:43;;;;;;;2.50;0.67;;;20.00;1.00;;;;;;5054773;28;20548;-80
2022/05/05 08:11:09;;;;;;;2.70;0.87;;;19.90;1.00;;;;;;5055070;28;20501;-80
2022/05/05 08:13:35;;;;;;;3.73;1.33;;;19.60;1.00;;;;;;5054945;28;20208;-81
2022/05/05 08:16:00;;;;;;;1.90;0.87;;;19.60;1.00;;;;;;5054954;28;20174;-81
2022/05/05 08:18:26;;;;;;;4.53;0.80;;;19.60;1.00;;;;;;5054827;28;20541;-80
2022/05/05 08:20:52;;;;;;;7.70;0.90;;;20.30;1.00;;;;;;5054840;28;20244;-80
2022/05/05 08:23:18;;;;;;;3.10;0.80;;;20.30;1.00;;;;;;5054429;28;20173;-81
2022/05/05 08:28:28;;;;;;;3.67;1.00;;;21.20;1.00;;;;;;5054644;28;20767;-80
2022/05/05 08:30:54;;;;;;;9.03;1.73;;;22.00;1.00;;;;;;5054669;28;20420;-81
2022/05/05 08:33:20;;;;;;;2.20;1.27;;;22.20;1.00;;;;;;5054621;28;20601;-81
2022/05/05 08:35:45;;;;;;;3.53;1.27;;;22.00;1.00;;;;;;5054711;28;20539;-81
2022/05/05 08:38:11;;;;;;;2.23;1.10;;;22.40;1.00;;;;;;5054264;28;20185;-80
2022/05/05 08:40:39;;;;;;;5.77;0.90;;;22.00;1.00;;;;;;5054518;28;20192;-80
2022/05/05 08:43:05;;;;;;;10.60;1.70;;;21.10;1.00;;;;;;5054425;28;20204;-81
2022/05/05 08:45:31;;;;;;;3.07;0.83;;;20.60;1.00;;;;;;5054276;28;20442;-78
2022/05/05 08:47:59;;;;;;;2.50;0.73;;;20.10;1.00;;;;;;5036498;28;20626;-81
2022/05/05 08:50:25;;;;;;;5.23;1.13;;;20.30;1.00;;;;;;5054234;28;20411;-78
2022/05/05 08:52:51;;;;;;;4.27;0.87;;;20.40;1.00;;;;;;5053752;28;20877;-80
2022/05/05 08:55:21;;;;;;;4.83;1.27;;;20.50;1.00;;;;;;5054194;28;20454;-81
2022/05/05 08:57:47;;;;;;;2.17;0.80;;;20.40;1.00;;;;;;5054104;28;20463;-81
2022/05/05 09:00:15;;;;;;;3.40;1.43;;;20.80;1.00;;;;;;5054133;28;20408;-79
2022/05/05 09:02:42;;;;;;;5.33;1.00;;;21.90;1.00;;;;;;5053790;28;20416;-80
2022/05/05 09:05:08;;;;;;;1.70;0.70;;;21.40;1.00;;;;;;5053966;28;20912;-81
2022/05/05 09:07:48;;;;;;;4.73;1.07;;;22.50;1.00;;;;;;5053550;28;20404;-81
2022/05/05 09:10:18;;;;;;;3.30;1.00;;;21.70;1.00;;;;;;5053756;28;20438;-81
2022/05/05 09:12:59;;;;;;;4.47;1.43;;;22.40;1.00;;;;;;5053722;28;20472;-81
2022/05/05 09:15:30;;;;;;;6.83;1.63;;;23.30;1.00;;;;;;5053827;28;20798;-81
2022/05/05 09:18:09;;;;;;;3.40;0.83;;;23.50;1.00;;;;;;5053840;28;20481;-81
2022/05/05 09:20:35;;;;;;;4.80;1.10;;;23.30;1.00;;;;;;5053780;28;20473;-81
2022/05/05 09:23:00;;;;;;;4.43;0.80;;;23.50;1.00;;;;;;5053366;28;20468;-81
2022/05/05 09:25:48;;;;;;;4.50;1.20;;;23.60;1.00;;;;;;5053678;28;20431;-81
2022/05/05 09:28:20;;;;;;;3.80;1.93;;;23.60;1.00;;;;;;5053617;28;20185;-81
2022/05/05 09:30:53;;;;;;;6.57;1.23;;;23.40;1.00;;;;;;5053609;28;20510;-81
2022/05/05 09:33:33;;;;;;;3.43;1.27;;;22.60;1.00;;;;;;5053609;28;20408;-81
2022/05/05 09:36:02;;;;;;;3.43;1.10;;;22.10;1.00;;;;;;5053554;28;20443;-80
2022/05/05 09:38:56;;;;;;;5.70;1.13;;;22.30;1.00;;;;;;5053065;28;20420;-81
2022/05/05 09:41:33;;;;;;;3.40;1.10;;;22.90;1.00;;;;;;5053376;28;20396;-81
2022/05/05 09:44:10;;;;;;;5.33;1.90;;;23.40;1.00;;;;;;5035150;28;21114;-81
2022/05/05 09:46:36;;;;;;;5.33;1.70;;;22.70;1.00;;;;;;5053379;28;20829;-81
2022/05/05 09:49:12;;;;;;;2.73;1.23;;;22.50;1.00;;;;;;5053297;28;20420;-81
2022/05/05 09:51:43;;;;;;;2.33;1.07;;;21.70;1.00;;;;;;5053292;28;20499;-81
2022/05/05 09:59:48;;;;;;;4.00;0.97;;;23.20;1.00;;;;;;5053217;28;20461;-81
2022/05/05 10:05:22;;;;;;;5.27;1.10;;;24.00;1.00;;;;;;5052967;28;20398;-81
2022/05/05 10:07:52;;;;;;;3.27;1.27;;;23.80;1.00;;;;;;5051346;28;20979;-81
2022/05/05 10:10:18;;;;;;;4.33;1.40;;;23.60;1.00;;;;;;5053000;28;20430;-81
2022/05/05 10:12:45;;;;;;;2.80;0.73;;;24.00;1.00;;;;;;5034570;28;20500;-82
2022/05/05 10:15:13;;;;;;;1.93;0.97;;;24.00;1.00;;;;;;5052904;28;20415;-82
2022/05/05 10:17:39;;;;;;;2.97;0.83;;;23.90;1.00;;;;;;5035100;28;20412;-81
2022/05/05 10:20:07;;;;;;;2.90;1.20;;;24.60;1.00;;;;;;5053333;28;20904;-82
2022/05/05 10:22:48;;;;;;;4.50;1.60;;;23.70;1.00;;;;;;5041218;28;20217;-82
2022/05/05 10:25:29;;;;;;;3.73;1.00;;;24.50;1.00;;;;;;5059521;28;20418;-81
2022/05/05 10:27:57;;;;;;;4.03;1.00;;;23.60;1.00;;;;;;5059476;28;20527;-82
2022/05/05 10:30:34;;;;;;;4.10;0.83;;;24.30;1.00;;;;;;5059437;28;20426;-82
2022/05/05 10:33:01;;;;;;;3.27;1.30;;;23.60;1.00;;;;;;5059519;28;20415;-82
2022/05/05 10:35:37;;;;;;;3.93;1.23;;;24.70;1.00;;;;;;5059450;28;20407;-81
2022/05/05 10:38:03;;;;;;;3.60;1.00;;;24.80;1.00;;;;;;5059052;28;20420;-83
2022/05/05 10:40:43;;;;;;;2.80;0.87;;;24.70;1.00;;;;;;5059371;28;20849;-82
2022/05/05 10:43:09;;;;;;;4.73;1.13;;;23.60;1.00;;;;;;5059123;28;20217;-81
2022/05/05 10:45:35;;;;;;;2.40;0.90;;;24.50;1.00;;;;;;5059260;28;20819;-81
2022/05/05 10:48:06;;;;;;;2.10;1.07;;;24.80;1.00;;;;;;5059059;28;20522;-82
2022/05/05 10:50:46;;;;;;;2.60;0.80;;;24.80;1.00;;;;;;5059327;28;20192;-83
2022/05/05 10:53:31;;;;;;;3.77;1.03;;;24.10;1.00;;;;;;5058891;28;20419;-82
2022/05/05 10:56:02;;;;;;;2.70;0.80;;;24.10;1.00;;;;;;5058722;28;20420;-82
2022/05/05 10:58:56;;;;;;;1.50;0.90;;;24.50;1.00;;;;;;5039745;28;20450;-82
2022/05/05 11:01:22;;;;;;;1.50;0.77;;;24.10;1.00;;;;;;5059149;28;20404;-82
2022/05/05 11:04:12;;;;;;;2.70;1.03;;;24.00;1.00;;;;;;5059078;28;20833;-82
2022/05/05 11:06:38;;;;;;;4.93;0.83;;;23.60;1.00;;;;;;5059165;28;20634;-82
2022/05/05 11:09:05;;;;;;;3.57;1.50;;;23.60;1.00;;;;;;5058774;28;20415;-83
2022/05/05 11:11:40;;;;;;;3.00;0.73;;;23.80;1.00;;;;;;5041164;28;20180;-82
2022/05/05 11:22:44;;;;;;;15.10;13.20;;;24.40;1.00;;;;;;5058665;28;20471;-82
2022/05/05 11:25:10;;;;;;;1.80;1.00;;;24.70;1.00;;;;;;5058979;28;20457;-82
2022/05/05 11:27:36;;;;;;;3.50;0.97;;;24.60;1.00;;;;;;5041055;28;20435;-82
2022/05/05 11:30:02;;;;;;;2.20;1.07;;;24.80;1.00;;;;;;5058958;28;20848;-83
2022/05/05 11:32:30;;;;;;;3.63;1.63;;;24.80;1.00;;;;;;5057463;28;20359;-82
2022/05/05 11:34:56;;;;;;;2.40;1.20;;;24.70;1.00;;;;;;5055758;28;20424;-82
2022/05/05 11:37:26;;;;;;;8.87;2.03;;;24.60;1.00;;;;;;5055416;28;20420;-82
2022/05/05 11:39:51;;;;;;;2.07;1.00;;;24.80;1.00;;;;;;5037822;28;20177;-82
2022/05/05 11:42:18;;;;;;;4.50;1.50;;;24.50;1.00;;;;;;5055446;28;20981;-82
2022/05/05 11:44:45;;;;;;;3.67;1.40;;;24.70;1.00;;;;;;5055409;28;20221;-82
2022/05/05 11:47:17;;;;;;;2.40;0.93;;;24.70;1.00;;;;;;5055530;28;20420;-82
2022/05/05 11:49:46;;;;;;;3.70;1.60;;;24.80;1.00;;;;;;5055519;28;20417;-82
2022/05/05 11:52:25;;;;;;;2.93;1.00;;;24.30;1.00;;;;;;5055050;28;20424;-82
2022/05/05 11:54:53;;;;;;;3.53;0.60;;;25.00;1.00;;;;;;5055454;28;20408;-82
2022/05/05 11:57:32;;;;;;;8.07;1.50;;;24.70;1.00;;;;;;5055416;28;20443;-82
2022/05/05 12:02:42;;;;;;;2.73;0.87;;;24.40;1.00;;;;;;5055078;28;20516;-82
2022/05/05 12:05:08;;;;;;;2.60;1.07;;;24.40;1.00;;;;;;5055154;28;20420;-82
2022/05/05 12:07:34;;;;;;;3.60;1.40;;;24.90;1.00;;;;;;5054642;28;20169;-82
2022/05/05 12:10:06;;;;;;;3.63;1.00;;;24.40;1.00;;;;;;5055148;28;20552;-82
2022/05/05 12:12:32;;;;;;;8.97;3.47;;;24.20;1.00;;;;;;5054981;28;20769;-82
2022/05/05 12:15:00;;;;;;;3.20;1.33;;;24.60;1.00;;;;;;5055001;28;20499;-82
2022/05/05 12:17:32;;;;;;;2.77;1.30;;;24.70;1.00;;;;;;5054971;28;20166;-82
2022/05/05 12:19:59;;;;;;;2.80;2.00;;;24.60;1.00;;;;;;5055009;28;20442;-83
2022/05/05 12:22:33;;;;;;;6.23;1.87;;;24.60;1.00;;;;;;5054491;28;20882;-83
2022/05/05 12:25:14;;;;;;;2.87;1.53;;;24.50;1.00;;;;;;5054717;28;20451;-82
2022/05/05 12:28:00;;;;;;;2.30;1.47;;;24.60;1.00;;;;;;5054806;28;20772;-82
2022/05/05 12:30:34;;;;;;;4.83;1.63;;;24.20;1.00;;;;;;5054234;28;20424;-83
2022/05/05 12:33:00;;;;;;;4.17;1.53;;;24.40;1.00;;;;;;5054672;28;20400;-83
2022/05/05 12:35:30;;;;;;;4.50;1.33;;;24.70;1.00;;;;;;5054643;28;20426;-83
2022/05/05 12:37:56;;;;;;;3.67;1.70;;;24.70;1.00;;;;;;5054236;28;20664;-83
2022/05/05 12:40:22;;;;;;;2.13;1.97;;;25.10;1.00;;;;;;5054538;28;20409;-83
2022/05/05 12:42:48;;;;;;;2.50;1.27;;;23.60;1.00;;;;;;5054547;28;20872;-82
2022/05/05 12:45:27;;;;;;;3.27;1.67;;;22.30;1.00;;;;;;5054083;28;20217;-83
2022/05/05 12:47:54;;;;;;;1.83;1.27;;;23.50;1.00;;;;;;5054539;28;20458;-83
2022/05/05 12:50:35;;;;;;;2.60;1.30;;;24.60;1.00;;;;;;5054549;28;20413;-83
2022/05/05 13:01:25;;;;;;;3.30;1.67;;;23.50;1.00;;;;;;5054498;28;20772;-83
2022/05/05 13:03:54;;;;;;;6.03;1.90;;;23.20;1.00;;;;;;5054263;28;20471;-82
2022/05/05 13:06:19;;;;;;;4.20;1.70;;;23.70;1.00;;;;;;5054238;28;20412;-82
2022/05/05 13:08:46;;;;;;;4.20;2.03;;;24.80;1.00;;;;;;5053695;28;20431;-83
2022/05/05 13:11:13;;;;;;;3.80;1.70;;;24.60;1.00;;;;;;5054151;28;20177;-82
2022/05/05 13:13:39;;;;;;;3.80;1.60;;;23.40;1.00;;;;;;5054099;28;20778;-82
2022/05/05 13:16:05;;;;;;;3.03;1.63;;;23.90;1.00;;;;;;5053997;28;20424;-82
2022/05/05 13:18:30;;;;;;;3.43;1.53;;;24.70;1.00;;;;;;5054005;28;20528;-83
2022/05/05 13:20:56;;;;;;;3.87;2.13;;;25.00;1.00;;;;;;5053960;28;20457;-83
2022/05/05 13:23:21;;;;;;;2.57;1.20;;;24.80;1.00;;;;;;5053542;28;20244;-82
2022/05/05 13:25:47;;;;;;;3.60;2.00;;;23.80;1.00;;;;;;5053892;28;20178;-82
2022/05/05 13:28:13;;;;;;;3.10;2.60;;;22.80;1.00;;;;;;5053766;28;20219;-81
2022/05/05 13:30:38;;;;;;;3.53;2.27;;;22.80;1.00;;;;;;5053777;28;20408;-82
2022/05/05 13:33:04;;;;;;;4.90;1.40;;;23.20;1.00;;;;;;5053766;28;20669;-82
2022/05/05 13:35:30;;;;;;;3.60;1.70;;;23.10;1.00;;;;;;5053517;28;20172;-82
2022/05/05 13:37:58;;;;;;;3.60;2.00;;;22.80;1.00;;;;;;5053283;28;20182;-81
2022/05/05 13:40:24;;;;;;;3.33;1.90;;;22.90;1.00;;;;;;5053692;28;20230;-81
2022/05/05 13:42:50;;;;;;;4.70;1.80;;;22.50;1.00;;;;;;5053513;28;20507;-82
2022/05/05 13:45:16;;;;;;;5.43;2.13;;;22.50;1.00;;;;;;5053236;28;20473;-81
2022/05/05 13:47:41;;;;;;;5.50;2.97;;;23.10;1.00;;;;;;5053468;28;20528;-82
2022/05/05 13:50:07;;;;;;;3.40;1.67;;;23.40;1.00;;;;;;5053182;28;20280;-81